sensor_id;sensor_type;location;lat;lon;timestamp;P1;durP1;ratioP1;P2;durP2;ratioP2
18021;SDS011;9136;48.822;7.966;2023-05-24T00:00:59;16.90;;;15.97;;
18021;SDS011;9136;48.822;7.966;2023-05-24T00:03:49;16.00;;;15.30;;
18021;SDS011;9136;48.822;7.966;2023-05-24T00:06:37;16.67;;;15.93;;
18021;SDS011;9136;48.822;7.966;2023-05-24T00:09:24;15.70;;;15.00;;
18021;SDS011;9136;48.822;7.966;2023-05-24T00:12:12;16.53;;;15.77;;
18021;SDS011;9136;48.822;7.966;2023-05-24T00:15:00;16.97;;;16.17;;
18021;SDS011;9136;48.822;7.966;2023-05-24T00:17:51;17.90;;;17.10;;
18021;SDS011;9136;48.822;7.966;2023-05-24T00:20:41;17.90;;;17.00;;
18021;SDS011;9136;48.822;7.966;2023-05-24T00:23:29;16.57;;;15.77;;
18021;SDS011;9136;48.822;7.966;2023-05-24T00:26:17;17.93;;;17.03;;
18021;SDS011;9136;48.822;7.966;2023-05-24T00:29:05;17.93;;;17.03;;
18021;SDS011;9136;48.822;7.966;2023-05-24T00:31:52;16.47;;;15.67;;
18021;SDS011;9136;48.822;7.966;2023-05-24T00:34:42;15.60;;;14.83;;
18021;SDS011;9136;48.822;7.966;2023-05-24T00:37:34;16.67;;;15.77;;
18021;SDS011;9136;48.822;7.966;2023-05-24T00:40:23;16.50;;;15.70;;
18021;SDS011;9136;48.822;7.966;2023-05-24T00:43:11;16.40;;;15.50;;
18021;SDS011;9136;48.822;7.966;2023-05-24T00:46:08;15.93;;;15.07;;
18021;SDS011;9136;48.822;7.966;2023-05-24T00:49:02;15.30;;;14.60;;
18021;SDS011;9136;48.822;7.966;2023-05-24T00:51:50;15.33;;;14.63;;
18021;SDS011;9136;48.822;7.966;2023-05-24T00:54:41;17.80;;;17.00;;
18021;SDS011;9136;48.822;7.966;2023-05-24T00:57:31;15.47;;;14.77;;
18021;SDS011;9136;48.822;7.966;2023-05-24T01:00:19;18.17;;;17.10;;
18021;SDS011;9136;48.822;7.966;2023-05-24T01:03:08;17.20;;;16.07;;
18021;SDS011;9136;48.822;7.966;2023-05-24T01:05:56;18.30;;;17.50;;
18021;SDS011;9136;48.822;7.966;2023-05-24T01:08:47;17.30;;;16.33;;
18021;SDS011;9136;48.822;7.966;2023-05-24T01:11:52;18.30;;;17.47;;
18021;SDS011;9136;48.822;7.966;2023-05-24T01:14:49;18.13;;;17.10;;
18021;SDS011;9136;48.822;7.966;2023-05-24T01:17:45;19.27;;;17.63;;
18021;SDS011;9136;48.822;7.966;2023-05-24T01:20:40;18.73;;;17.83;;
18021;SDS011;9136;48.822;7.966;2023-05-24T01:23:31;18.40;;;17.07;;
18021;SDS011;9136;48.822;7.966;2023-05-24T01:26:32;17.70;;;16.83;;
18021;SDS011;9136;48.822;7.966;2023-05-24T01:29:27;14.83;;;14.17;;
18021;SDS011;9136;48.822;7.966;2023-05-24T01:32:18;16.40;;;15.50;;
18021;SDS011;9136;48.822;7.966;2023-05-24T01:35:07;19.00;;;17.17;;
18021;SDS011;9136;48.822;7.966;2023-05-24T01:37:55;17.40;;;16.60;;
18021;SDS011;9136;48.822;7.966;2023-05-24T01:40:43;16.03;;;15.33;;
18021;SDS011;9136;48.822;7.966;2023-05-24T01:43:37;18.70;;;17.67;;
18021;SDS011;9136;48.822;7.966;2023-05-24T01:46:33;16.10;;;15.30;;
18021;SDS011;9136;48.822;7.966;2023-05-24T01:49:25;16.80;;;16.00;;
18021;SDS011;9136;48.822;7.966;2023-05-24T01:52:18;18.37;;;17.17;;
18021;SDS011;9136;48.822;7.966;2023-05-24T01:55:09;18.03;;;17.23;;
18021;SDS011;9136;48.822;7.966;2023-05-24T01:58:00;16.30;;;15.50;;
18021;SDS011;9136;48.822;7.966;2023-05-24T02:00:49;15.33;;;14.63;;
18021;SDS011;9136;48.822;7.966;2023-05-24T02:03:40;16.63;;;15.70;;
18021;SDS011;9136;48.822;7.966;2023-05-24T02:06:27;18.93;;;16.30;;
18021;SDS011;9136;48.822;7.966;2023-05-24T02:09:15;16.93;;;16.13;;
18021;SDS011;9136;48.822;7.966;2023-05-24T02:12:03;18.53;;;17.73;;
18021;SDS011;9136;48.822;7.966;2023-05-24T02:14:52;16.43;;;15.50;;
18021;SDS011;9136;48.822;7.966;2023-05-24T02:17:42;15.80;;;15.10;;
18021;SDS011;9136;48.822;7.966;2023-05-24T02:20:34;16.87;;;16.10;;
18021;SDS011;9136;48.822;7.966;2023-05-24T02:23:22;18.50;;;17.50;;
18021;SDS011;9136;48.822;7.966;2023-05-24T02:26:11;15.87;;;15.00;;
18021;SDS011;9136;48.822;7.966;2023-05-24T02:28:59;17.90;;;17.00;;
18021;SDS011;9136;48.822;7.966;2023-05-24T02:31:47;16.57;;;15.67;;
18021;SDS011;9136;48.822;7.966;2023-05-24T02:34:41;18.27;;;17.37;;
18021;SDS011;9136;48.822;7.966;2023-05-24T02:37:30;18.10;;;17.30;;
18021;SDS011;9136;48.822;7.966;2023-05-24T02:40:18;16.50;;;15.80;;
18021;SDS011;9136;48.822;7.966;2023-05-24T02:43:06;18.13;;;16.83;;
18021;SDS011;9136;48.822;7.966;2023-05-24T02:45:54;16.13;;;15.43;;
18021;SDS011;9136;48.822;7.966;2023-05-24T02:48:42;18.50;;;17.60;;
18021;SDS011;9136;48.822;7.966;2023-05-24T02:51:30;15.23;;;14.53;;
18021;SDS011;9136;48.822;7.966;2023-05-24T02:54:20;16.27;;;15.50;;
18021;SDS011;9136;48.822;7.966;2023-05-24T02:57:08;15.77;;;15.03;;
18021;SDS011;9136;48.822;7.966;2023-05-24T02:59:56;17.20;;;16.40;;
18021;SDS011;9136;48.822;7.966;2023-05-24T03:02:45;17.27;;;16.47;;
18021;SDS011;9136;48.822;7.966;2023-05-24T03:05:35;17.43;;;16.53;;
18021;SDS011;9136;48.822;7.966;2023-05-24T03:08:23;16.53;;;15.80;;
18021;SDS011;9136;48.822;7.966;2023-05-24T03:11:12;16.67;;;15.87;;
18021;SDS011;9136;48.822;7.966;2023-05-24T03:14:00;17.93;;;17.03;;
18021;SDS011;9136;48.822;7.966;2023-05-24T03:16:48;17.47;;;16.67;;
18021;SDS011;9136;48.822;7.966;2023-05-24T03:19:36;18.73;;;17.93;;
18021;SDS011;9136;48.822;7.966;2023-05-24T03:22:23;19.03;;;18.03;;
18021;SDS011;9136;48.822;7.966;2023-05-24T03:25:11;17.00;;;16.10;;
18021;SDS011;9136;48.822;7.966;2023-05-24T03:28:02;17.23;;;16.43;;
18021;SDS011;9136;48.822;7.966;2023-05-24T03:30:50;20.37;;;18.30;;
18021;SDS011;9136;48.822;7.966;2023-05-24T03:33:37;19.10;;;18.20;;
18021;SDS011;9136;48.822;7.966;2023-05-24T03:36:25;20.63;;;18.57;;
18021;SDS011;9136;48.822;7.966;2023-05-24T03:39:13;19.43;;;18.60;;
18021;SDS011;9136;48.822;7.966;2023-05-24T03:42:01;18.43;;;17.57;;
18021;SDS011;9136;48.822;7.966;2023-05-24T03:44:51;16.67;;;15.97;;
18021;SDS011;9136;48.822;7.966;2023-05-24T03:47:38;18.90;;;17.60;;
18021;SDS011;9136;48.822;7.966;2023-05-24T03:50:26;18.70;;;17.90;;
18021;SDS011;9136;48.822;7.966;2023-05-24T03:53:14;18.33;;;17.53;;
18021;SDS011;9136;48.822;7.966;2023-05-24T03:56:01;17.70;;;16.83;;
18021;SDS011;9136;48.822;7.966;2023-05-24T03:58:49;18.10;;;17.30;;
18021;SDS011;9136;48.822;7.966;2023-05-24T04:01:39;18.43;;;17.27;;
18021;SDS011;9136;48.822;7.966;2023-05-24T04:04:27;18.93;;;18.13;;
18021;SDS011;9136;48.822;7.966;2023-05-24T04:07:15;17.73;;;16.93;;
18021;SDS011;9136;48.822;7.966;2023-05-24T04:10:03;18.03;;;17.03;;
18021;SDS011;9136;48.822;7.966;2023-05-24T04:12:51;16.90;;;16.10;;
18021;SDS011;9136;48.822;7.966;2023-05-24T04:15:41;18.57;;;17.77;;
18021;SDS011;9136;48.822;7.966;2023-05-24T04:18:31;16.97;;;16.23;;
18021;SDS011;9136;48.822;7.966;2023-05-24T04:21:19;19.23;;;18.33;;
18021;SDS011;9136;48.822;7.966;2023-05-24T04:24:07;20.10;;;19.10;;
18021;SDS011;9136;48.822;7.966;2023-05-24T04:26:55;20.03;;;19.13;;
18021;SDS011;9136;48.822;7.966;2023-05-24T04:29:43;19.63;;;18.73;;
18021;SDS011;9136;48.822;7.966;2023-05-24T04:32:34;17.87;;;17.07;;
18021;SDS011;9136;48.822;7.966;2023-05-24T04:35:24;20.43;;;19.43;;
18021;SDS011;9136;48.822;7.966;2023-05-24T04:38:25;17.00;;;16.30;;
18021;SDS011;9136;48.822;7.966;2023-05-24T04:41:14;17.47;;;16.67;;
18021;SDS011;9136;48.822;7.966;2023-05-24T04:44:02;18.37;;;17.57;;
18021;SDS011;9136;48.822;7.966;2023-05-24T04:46:50;19.73;;;18.03;;
18021;SDS011;9136;48.822;7.966;2023-05-24T04:49:38;19.00;;;18.00;;
18021;SDS011;9136;48.822;7.966;2023-05-24T04:52:28;19.37;;;18.47;;
18021;SDS011;9136;48.822;7.966;2023-05-24T04:55:16;17.40;;;16.60;;
18021;SDS011;9136;48.822;7.966;2023-05-24T04:58:04;19.10;;;18.23;;
18021;SDS011;9136;48.822;7.966;2023-05-24T05:00:51;16.30;;;15.50;;
18021;SDS011;9136;48.822;7.966;2023-05-24T05:03:39;20.50;;;19.10;;
18021;SDS011;9136;48.822;7.966;2023-05-24T05:06:28;20.00;;;19.00;;
18021;SDS011;9136;48.822;7.966;2023-05-24T05:09:18;18.03;;;17.13;;
18021;SDS011;9136;48.822;7.966;2023-05-24T05:12:06;19.57;;;18.67;;
18021;SDS011;9136;48.822;7.966;2023-05-24T05:14:54;19.27;;;18.13;;
18021;SDS011;9136;48.822;7.966;2023-05-24T05:17:42;17.03;;;16.00;;
18021;SDS011;9136;48.822;7.966;2023-05-24T05:20:30;18.07;;;17.27;;
18021;SDS011;9136;48.822;7.966;2023-05-24T05:23:18;16.50;;;15.80;;
18021;SDS011;9136;48.822;7.966;2023-05-24T05:26:11;15.67;;;14.90;;
18021;SDS011;9136;48.822;7.966;2023-05-24T05:29:01;17.50;;;16.70;;
18021;SDS011;9136;48.822;7.966;2023-05-24T05:31:49;18.50;;;17.70;;
18021;SDS011;9136;48.822;7.966;2023-05-24T05:34:37;17.90;;;17.03;;
18021;SDS011;9136;48.822;7.966;2023-05-24T05:37:25;18.50;;;17.70;;
18021;SDS011;9136;48.822;7.966;2023-05-24T05:40:13;16.63;;;15.93;;
18021;SDS011;9136;48.822;7.966;2023-05-24T05:43:02;15.67;;;14.87;;
18021;SDS011;9136;48.822;7.966;2023-05-24T05:45:50;19.40;;;17.77;;
18021;SDS011;9136;48.822;7.966;2023-05-24T05:48:38;18.27;;;17.47;;
18021;SDS011;9136;48.822;7.966;2023-05-24T05:51:26;18.00;;;17.00;;
18021;SDS011;9136;48.822;7.966;2023-05-24T05:54:14;16.60;;;15.83;;
18021;SDS011;9136;48.822;7.966;2023-05-24T05:57:03;16.73;;;16.03;;
18021;SDS011;9136;48.822;7.966;2023-05-24T05:59:54;18.50;;;17.43;;
18021;SDS011;9136;48.822;7.966;2023-05-24T06:02:42;16.90;;;16.00;;
18021;SDS011;9136;48.822;7.966;2023-05-24T06:05:30;16.83;;;15.60;;
18021;SDS011;9136;48.822;7.966;2023-05-24T06:08:18;15.33;;;14.63;;
18021;SDS011;9136;48.822;7.966;2023-05-24T06:11:05;18.97;;;18.07;;
18021;SDS011;9136;48.822;7.966;2023-05-24T06:13:54;20.10;;;19.10;;
18021;SDS011;9136;48.822;7.966;2023-05-24T06:16:43;18.50;;;17.43;;
18021;SDS011;9136;48.822;7.966;2023-05-24T06:19:32;18.40;;;17.50;;
18021;SDS011;9136;48.822;7.966;2023-05-24T06:22:20;17.63;;;16.83;;
18021;SDS011;9136;48.822;7.966;2023-05-24T06:25:08;15.70;;;14.90;;
18021;SDS011;9136;48.822;7.966;2023-05-24T06:28:00;19.90;;;18.93;;
18021;SDS011;9136;48.822;7.966;2023-05-24T06:30:48;18.10;;;17.30;;
18021;SDS011;9136;48.822;7.966;2023-05-24T06:33:37;17.47;;;16.67;;
18021;SDS011;9136;48.822;7.966;2023-05-24T06:36:25;20.20;;;18.90;;
18021;SDS011;9136;48.822;7.966;2023-05-24T06:39:13;20.83;;;19.73;;
18021;SDS011;9136;48.822;7.966;2023-05-24T06:42:02;17.83;;;17.03;;
18021;SDS011;9136;48.822;7.966;2023-05-24T06:44:50;19.30;;;18.30;;
18021;SDS011;9136;48.822;7.966;2023-05-24T06:47:38;19.13;;;17.70;;
18021;SDS011;9136;48.822;7.966;2023-05-24T06:50:27;17.23;;;16.50;;
18021;SDS011;9136;48.822;7.966;2023-05-24T06:53:15;17.70;;;16.90;;
18021;SDS011;9136;48.822;7.966;2023-05-24T06:56:03;18.10;;;16.90;;
18021;SDS011;9136;48.822;7.966;2023-05-24T06:58:50;16.70;;;15.80;;
18021;SDS011;9136;48.822;7.966;2023-05-24T07:01:38;15.30;;;14.63;;
18021;SDS011;9136;48.822;7.966;2023-05-24T07:04:27;18.13;;;17.03;;
18021;SDS011;9136;48.822;7.966;2023-05-24T07:07:17;16.17;;;15.40;;
18021;SDS011;9136;48.822;7.966;2023-05-24T07:10:05;21.67;;;19.80;;
18021;SDS011;9136;48.822;7.966;2023-05-24T07:12:55;16.23;;;15.53;;
18021;SDS011;9136;48.822;7.966;2023-05-24T07:15:43;17.83;;;16.83;;
18021;SDS011;9136;48.822;7.966;2023-05-24T07:18:32;16.57;;;15.77;;
18021;SDS011;9136;48.822;7.966;2023-05-24T07:21:20;18.17;;;17.27;;
18021;SDS011;9136;48.822;7.966;2023-05-24T07:24:09;17.40;;;16.60;;
18021;SDS011;9136;48.822;7.966;2023-05-24T07:26:57;17.33;;;16.50;;
18021;SDS011;9136;48.822;7.966;2023-05-24T07:29:45;16.33;;;15.50;;
18021;SDS011;9136;48.822;7.966;2023-05-24T07:32:33;17.30;;;16.50;;
18021;SDS011;9136;48.822;7.966;2023-05-24T07:35:20;19.30;;;18.23;;
18021;SDS011;9136;48.822;7.966;2023-05-24T07:38:09;16.33;;;15.63;;
18021;SDS011;9136;48.822;7.966;2023-05-24T07:40:59;15.90;;;15.20;;
18021;SDS011;9136;48.822;7.966;2023-05-24T07:43:48;16.53;;;15.67;;
18021;SDS011;9136;48.822;7.966;2023-05-24T07:46:36;16.67;;;15.90;;
18021;SDS011;9136;48.822;7.966;2023-05-24T07:49:23;17.23;;;16.27;;
18021;SDS011;9136;48.822;7.966;2023-05-24T07:52:11;19.03;;;18.13;;
18021;SDS011;9136;48.822;7.966;2023-05-24T07:54:59;17.53;;;16.63;;
18021;SDS011;9136;48.822;7.966;2023-05-24T07:57:48;17.57;;;16.77;;
18021;SDS011;9136;48.822;7.966;2023-05-24T08:00:36;20.27;;;18.97;;
18021;SDS011;9136;48.822;7.966;2023-05-24T08:03:24;17.23;;;16.43;;
18021;SDS011;9136;48.822;7.966;2023-05-24T08:06:12;17.30;;;16.50;;
18021;SDS011;9136;48.822;7.966;2023-05-24T08:09:00;18.87;;;17.70;;
18021;SDS011;9136;48.822;7.966;2023-05-24T08:11:48;16.30;;;15.60;;
18021;SDS011;9136;48.822;7.966;2023-05-24T08:14:38;17.10;;;16.30;;
18021;SDS011;9136;48.822;7.966;2023-05-24T08:17:26;16.47;;;15.67;;
18021;SDS011;9136;48.822;7.966;2023-05-24T08:20:14;15.13;;;14.50;;
18021;SDS011;9136;48.822;7.966;2023-05-24T08:23:02;16.57;;;15.67;;
18021;SDS011;9136;48.822;7.966;2023-05-24T08:25:50;17.90;;;16.37;;
18021;SDS011;9136;48.822;7.966;2023-05-24T08:28:39;15.93;;;15.13;;
18021;SDS011;9136;48.822;7.966;2023-05-24T08:31:29;17.63;;;16.80;;
18021;SDS011;9136;48.822;7.966;2023-05-24T08:34:18;17.77;;;16.83;;
18021;SDS011;9136;48.822;7.966;2023-05-24T08:37:06;16.67;;;15.97;;
18021;SDS011;9136;48.822;7.966;2023-05-24T08:39:54;14.47;;;13.87;;
18021;SDS011;9136;48.822;7.966;2023-05-24T08:42:42;17.03;;;16.23;;
18021;SDS011;9136;48.822;7.966;2023-05-24T08:45:31;16.80;;;16.00;;
18021;SDS011;9136;48.822;7.966;2023-05-24T08:48:24;16.63;;;15.90;;
18021;SDS011;9136;48.822;7.966;2023-05-24T08:51:13;15.80;;;14.80;;
18021;SDS011;9136;48.822;7.966;2023-05-24T08:54:01;16.07;;;15.37;;
18021;SDS011;9136;48.822;7.966;2023-05-24T08:56:51;16.83;;;15.87;;
18021;SDS011;9136;48.822;7.966;2023-05-24T08:59:40;15.30;;;14.50;;
18021;SDS011;9136;48.822;7.966;2023-05-24T09:02:28;15.83;;;15.13;;
18021;SDS011;9136;48.822;7.966;2023-05-24T09:05:19;16.03;;;15.33;;
18021;SDS011;9136;48.822;7.966;2023-05-24T09:08:09;14.67;;;13.97;;
18021;SDS011;9136;48.822;7.966;2023-05-24T09:10:58;14.10;;;13.50;;
18021;SDS011;9136;48.822;7.966;2023-05-24T09:13:46;17.60;;;16.60;;
18021;SDS011;9136;48.822;7.966;2023-05-24T09:16:35;17.27;;;16.37;;
18021;SDS011;9136;48.822;7.966;2023-05-24T09:19:23;15.03;;;14.37;;
18021;SDS011;9136;48.822;7.966;2023-05-24T09:22:14;15.87;;;15.17;;
18021;SDS011;9136;48.822;7.966;2023-05-24T09:25:05;16.90;;;16.20;;
18021;SDS011;9136;48.822;7.966;2023-05-24T09:27:54;16.13;;;15.13;;
18021;SDS011;9136;48.822;7.966;2023-05-24T09:30:42;15.93;;;15.13;;
18021;SDS011;9136;48.822;7.966;2023-05-24T09:33:31;15.53;;;14.83;;
18021;SDS011;9136;48.822;7.966;2023-05-24T09:36:20;13.97;;;13.37;;
18021;SDS011;9136;48.822;7.966;2023-05-24T09:39:09;13.23;;;12.63;;
18021;SDS011;9136;48.822;7.966;2023-05-24T09:41:58;16.87;;;16.07;;
18021;SDS011;9136;48.822;7.966;2023-05-24T09:44:46;15.23;;;14.50;;
18021;SDS011;9136;48.822;7.966;2023-05-24T09:47:35;14.33;;;13.73;;
18021;SDS011;9136;48.822;7.966;2023-05-24T09:50:24;14.43;;;13.83;;
18021;SDS011;9136;48.822;7.966;2023-05-24T09:53:15;15.20;;;14.40;;
18021;SDS011;9136;48.822;7.966;2023-05-24T09:56:06;16.40;;;15.60;;
18021;SDS011;9136;48.822;7.966;2023-05-24T09:58:54;15.33;;;14.63;;
18021;SDS011;9136;48.822;7.966;2023-05-24T10:01:42;15.13;;;14.43;;
18021;SDS011;9136;48.822;7.966;2023-05-24T10:04:38;14.60;;;14.00;;
18021;SDS011;9136;48.822;7.966;2023-05-24T10:07:27;14.47;;;13.87;;
18021;SDS011;9136;48.822;7.966;2023-05-24T10:10:16;17.00;;;15.93;;
18021;SDS011;9136;48.822;7.966;2023-05-24T10:13:06;14.70;;;14.00;;
18021;SDS011;9136;48.822;7.966;2023-05-24T10:15:54;15.20;;;14.50;;
18021;SDS011;9136;48.822;7.966;2023-05-24T10:18:42;15.37;;;14.67;;
18021;SDS011;9136;48.822;7.966;2023-05-24T10:21:30;14.57;;;13.83;;
18021;SDS011;9136;48.822;7.966;2023-05-24T10:24:20;16.33;;;15.33;;
18021;SDS011;9136;48.822;7.966;2023-05-24T10:27:13;14.40;;;13.80;;
18021;SDS011;9136;48.822;7.966;2023-05-24T10:30:09;15.77;;;14.83;;
18021;SDS011;9136;48.822;7.966;2023-05-24T10:33:03;15.80;;;14.93;;
18021;SDS011;9136;48.822;7.966;2023-05-24T10:35:56;15.33;;;14.63;;
18021;SDS011;9136;48.822;7.966;2023-05-24T10:38:45;14.60;;;13.90;;
18021;SDS011;9136;48.822;7.966;2023-05-24T10:41:37;15.63;;;14.93;;
18021;SDS011;9136;48.822;7.966;2023-05-24T10:44:27;16.20;;;14.83;;
18021;SDS011;9136;48.822;7.966;2023-05-24T10:47:19;15.70;;;15.00;;
18021;SDS011;9136;48.822;7.966;2023-05-24T10:50:15;14.30;;;13.60;;
18021;SDS011;9136;48.822;7.966;2023-05-24T10:53:10;14.77;;;14.07;;
18021;SDS011;9136;48.822;7.966;2023-05-24T10:55:59;15.23;;;14.52;;
18021;SDS011;9136;48.822;7.966;2023-05-24T10:58:58;14.43;;;13.73;;
18021;SDS011;9136;48.822;7.966;2023-05-24T11:01:53;14.10;;;13.50;;
18021;SDS011;9136;48.822;7.966;2023-05-24T11:04:45;15.93;;;15.23;;
18021;SDS011;9136;48.822;7.966;2023-05-24T11:07:37;15.60;;;14.80;;
18021;SDS011;9136;48.822;7.966;2023-05-24T11:10:28;15.00;;;14.40;;
18021;SDS011;9136;48.822;7.966;2023-05-24T11:13:54;15.07;;;14.38;;
18021;SDS011;9136;48.822;7.966;2023-05-24T11:16:43;15.00;;;14.32;;
18021;SDS011;9136;48.822;7.966;2023-05-24T11:19:33;14.73;;;13.80;;
18021;SDS011;9136;48.822;7.966;2023-05-24T11:22:24;14.90;;;14.25;;
18021;SDS011;9136;48.822;7.966;2023-05-24T11:25:12;13.02;;;12.43;;
18021;SDS011;9136;48.822;7.966;2023-05-24T11:28:05;12.90;;;12.30;;
18021;SDS011;9136;48.822;7.966;2023-05-24T11:30:57;13.55;;;12.95;;
18021;SDS011;9136;48.822;7.966;2023-05-24T11:33:58;18.60;;;13.10;;
18021;SDS011;9136;48.822;7.966;2023-05-24T11:36:49;11.93;;;11.43;;
18021;SDS011;9136;48.822;7.966;2023-05-24T11:39:40;12.48;;;11.88;;
18021;SDS011;9136;48.822;7.966;2023-05-24T11:42:28;11.18;;;10.68;;
18021;SDS011;9136;48.822;7.966;2023-05-24T11:45:16;11.63;;;11.07;;
18021;SDS011;9136;48.822;7.966;2023-05-24T11:48:06;12.32;;;11.40;;
18021;SDS011;9136;48.822;7.966;2023-05-24T11:50:54;12.00;;;11.40;;
18021;SDS011;9136;48.822;7.966;2023-05-24T11:53:44;11.70;;;11.20;;
18021;SDS011;9136;48.822;7.966;2023-05-24T11:56:32;11.82;;;11.25;;
18021;SDS011;9136;48.822;7.966;2023-05-24T11:59:21;12.20;;;11.60;;
18021;SDS011;9136;48.822;7.966;2023-05-24T12:02:10;12.45;;;11.85;;
18021;SDS011;9136;48.822;7.966;2023-05-24T12:05:06;14.68;;;13.80;;
18021;SDS011;9136;48.822;7.966;2023-05-24T12:08:00;29.55;;;12.38;;
18021;SDS011;9136;48.822;7.966;2023-05-24T12:10:50;11.98;;;11.48;;
18021;SDS011;9136;48.822;7.966;2023-05-24T12:13:39;12.80;;;12.20;;
18021;SDS011;9136;48.822;7.966;2023-05-24T12:16:27;13.77;;;12.93;;
18021;SDS011;9136;48.822;7.966;2023-05-24T12:19:18;12.85;;;12.25;;
18021;SDS011;9136;48.822;7.966;2023-05-24T12:22:07;11.68;;;11.18;;
18021;SDS011;9136;48.822;7.966;2023-05-24T12:24:56;11.93;;;11.43;;
18021;SDS011;9136;48.822;7.966;2023-05-24T12:27:44;13.48;;;12.77;;
18021;SDS011;9136;48.822;7.966;2023-05-24T12:30:35;11.60;;;11.10;;
18021;SDS011;9136;48.822;7.966;2023-05-24T12:33:27;12.25;;;11.65;;
18021;SDS011;9136;48.822;7.966;2023-05-24T12:36:16;11.55;;;11.05;;
18021;SDS011;9136;48.822;7.966;2023-05-24T12:39:10;13.63;;;12.90;;
18021;SDS011;9136;48.822;7.966;2023-05-24T12:42:04;12.18;;;11.20;;
18021;SDS011;9136;48.822;7.966;2023-05-24T12:44:52;11.77;;;11.15;;
18021;SDS011;9136;48.822;7.966;2023-05-24T12:47:40;11.20;;;10.70;;
18021;SDS011;9136;48.822;7.966;2023-05-24T12:50:28;11.05;;;10.55;;
18021;SDS011;9136;48.822;7.966;2023-05-24T12:53:16;11.85;;;11.23;;
18021;SDS011;9136;48.822;7.966;2023-05-24T12:56:06;11.45;;;10.80;;
18021;SDS011;9136;48.822;7.966;2023-05-24T12:58:54;12.60;;;12.00;;
18021;SDS011;9136;48.822;7.966;2023-05-24T13:01:43;10.88;;;10.38;;
18021;SDS011;9136;48.822;7.966;2023-05-24T13:04:35;11.57;;;10.93;;
18021;SDS011;9136;48.822;7.966;2023-05-24T13:07:23;10.95;;;10.45;;
18021;SDS011;9136;48.822;7.966;2023-05-24T13:10:11;11.80;;;11.30;;
18021;SDS011;9136;48.822;7.966;2023-05-24T13:13:01;12.57;;;11.98;;
18021;SDS011;9136;48.822;7.966;2023-05-24T13:15:50;11.25;;;10.75;;
18021;SDS011;9136;48.822;7.966;2023-05-24T13:18:39;11.85;;;10.98;;
18021;SDS011;9136;48.822;7.966;2023-05-24T13:21:27;11.63;;;11.07;;
18021;SDS011;9136;48.822;7.966;2023-05-24T13:24:15;11.93;;;11.43;;
18021;SDS011;9136;48.822;7.966;2023-05-24T13:27:05;11.88;;;11.27;;
18021;SDS011;9136;48.822;7.966;2023-05-24T13:29:55;11.57;;;11.07;;
18021;SDS011;9136;48.822;7.966;2023-05-24T13:32:44;11.35;;;10.75;;
18021;SDS011;9136;48.822;7.966;2023-05-24T13:35:32;11.95;;;11.45;;
18021;SDS011;9136;48.822;7.966;2023-05-24T13:38:20;12.50;;;11.80;;
18021;SDS011;9136;48.822;7.966;2023-05-24T13:41:08;11.38;;;10.43;;
18021;SDS011;9136;48.822;7.966;2023-05-24T13:43:56;11.38;;;10.88;;
18021;SDS011;9136;48.822;7.966;2023-05-24T13:46:47;10.18;;;9.68;;
18021;SDS011;9136;48.822;7.966;2023-05-24T13:49:36;11.15;;;10.65;;
18021;SDS011;9136;48.822;7.966;2023-05-24T13:52:24;10.93;;;10.35;;
18021;SDS011;9136;48.822;7.966;2023-05-24T13:55:11;10.88;;;10.27;;
18021;SDS011;9136;48.822;7.966;2023-05-24T13:57:59;10.55;;;10.15;;
18021;SDS011;9136;48.822;7.966;2023-05-24T14:00:49;11.30;;;10.80;;
18021;SDS011;9136;48.822;7.966;2023-05-24T14:03:39;11.40;;;10.73;;
18021;SDS011;9136;48.822;7.966;2023-05-24T14:06:27;11.05;;;10.55;;
18021;SDS011;9136;48.822;7.966;2023-05-24T14:09:15;11.75;;;11.25;;
18021;SDS011;9136;48.822;7.966;2023-05-24T14:12:03;11.43;;;10.93;;
18021;SDS011;9136;48.822;7.966;2023-05-24T14:14:52;11.57;;;11.07;;
18021;SDS011;9136;48.822;7.966;2023-05-24T14:17:40;11.02;;;10.52;;
18021;SDS011;9136;48.822;7.966;2023-05-24T14:20:30;11.05;;;10.55;;
18021;SDS011;9136;48.822;7.966;2023-05-24T14:23:17;11.35;;;10.85;;
18021;SDS011;9136;48.822;7.966;2023-05-24T14:26:05;11.43;;;10.57;;
18021;SDS011;9136;48.822;7.966;2023-05-24T14:28:53;11.68;;;11.18;;
18021;SDS011;9136;48.822;7.966;2023-05-24T14:31:41;10.63;;;10.23;;
18021;SDS011;9136;48.822;7.966;2023-05-24T14:34:29;10.77;;;10.27;;
18021;SDS011;9136;48.822;7.966;2023-05-24T14:37:19;11.25;;;10.75;;
18021;SDS011;9136;48.822;7.966;2023-05-24T14:40:07;11.75;;;11.15;;
18021;SDS011;9136;48.822;7.966;2023-05-24T14:42:56;11.10;;;10.60;;
18021;SDS011;9136;48.822;7.966;2023-05-24T14:45:44;11.45;;;10.95;;
18021;SDS011;9136;48.822;7.966;2023-05-24T14:48:32;10.63;;;10.13;;
18021;SDS011;9136;48.822;7.966;2023-05-24T14:51:22;11.50;;;10.95;;
18021;SDS011;9136;48.822;7.966;2023-05-24T14:54:11;10.35;;;9.95;;
18021;SDS011;9136;48.822;7.966;2023-05-24T14:56:59;10.95;;;10.45;;
18021;SDS011;9136;48.822;7.966;2023-05-24T14:59:47;11.32;;;10.80;;
18021;SDS011;9136;48.822;7.966;2023-05-24T15:02:35;10.23;;;9.55;;
18021;SDS011;9136;48.822;7.966;2023-05-24T15:05:23;10.70;;;10.02;;
18021;SDS011;9136;48.822;7.966;2023-05-24T15:08:13;9.45;;;9.05;;
18021;SDS011;9136;48.822;7.966;2023-05-24T15:11:03;12.18;;;10.02;;
18021;SDS011;9136;48.822;7.966;2023-05-24T15:13:51;11.25;;;10.75;;
18021;SDS011;9136;48.822;7.966;2023-05-24T15:16:43;11.45;;;10.95;;
18021;SDS011;9136;48.822;7.966;2023-05-24T15:19:33;10.65;;;10.15;;
18021;SDS011;9136;48.822;7.966;2023-05-24T15:22:21;10.82;;;10.32;;
18021;SDS011;9136;48.822;7.966;2023-05-24T15:25:09;11.13;;;10.63;;
18021;SDS011;9136;48.822;7.966;2023-05-24T15:27:59;11.70;;;11.02;;
18021;SDS011;9136;48.822;7.966;2023-05-24T15:30:48;11.75;;;11.07;;
18021;SDS011;9136;48.822;7.966;2023-05-24T15:33:35;11.48;;;10.88;;
18021;SDS011;9136;48.822;7.966;2023-05-24T15:36:23;13.27;;;12.40;;
18021;SDS011;9136;48.822;7.966;2023-05-24T15:39:11;12.13;;;11.57;;
18021;SDS011;9136;48.822;7.966;2023-05-24T15:41:59;11.10;;;10.60;;
18021;SDS011;9136;48.822;7.966;2023-05-24T15:44:50;12.13;;;11.52;;
18021;SDS011;9136;48.822;7.966;2023-05-24T15:47:38;10.77;;;10.32;;
18021;SDS011;9136;48.822;7.966;2023-05-24T15:50:25;12.63;;;11.98;;
18021;SDS011;9136;48.822;7.966;2023-05-24T15:53:13;11.85;;;11.35;;
18021;SDS011;9136;48.822;7.966;2023-05-24T15:56:01;11.45;;;10.95;;
18021;SDS011;9136;48.822;7.966;2023-05-24T15:58:49;12.15;;;11.38;;
18021;SDS011;9136;48.822;7.966;2023-05-24T16:01:39;12.05;;;11.25;;
18021;SDS011;9136;48.822;7.966;2023-05-24T16:04:26;12.15;;;11.65;;
18021;SDS011;9136;48.822;7.966;2023-05-24T16:07:14;11.85;;;11.25;;
18021;SDS011;9136;48.822;7.966;2023-05-24T16:10:03;12.15;;;11.55;;
18021;SDS011;9136;48.822;7.966;2023-05-24T16:12:51;12.70;;;11.63;;
18021;SDS011;9136;48.822;7.966;2023-05-24T16:15:41;10.95;;;10.45;;
18021;SDS011;9136;48.822;7.966;2023-05-24T16:18:37;12.80;;;11.70;;
18021;SDS011;9136;48.822;7.966;2023-05-24T16:21:26;11.15;;;10.65;;
18021;SDS011;9136;48.822;7.966;2023-05-24T16:24:16;11.77;;;11.20;;
18021;SDS011;9136;48.822;7.966;2023-05-24T16:27:03;11.88;;;11.32;;
18021;SDS011;9136;48.822;7.966;2023-05-24T16:29:53;12.38;;;11.57;;
18021;SDS011;9136;48.822;7.966;2023-05-24T16:32:41;11.10;;;10.60;;
18021;SDS011;9136;48.822;7.966;2023-05-24T16:35:31;16.02;;;12.88;;
18021;SDS011;9136;48.822;7.966;2023-05-24T16:38:19;12.13;;;11.55;;
18021;SDS011;9136;48.822;7.966;2023-05-24T16:41:07;11.27;;;10.77;;
18021;SDS011;9136;48.822;7.966;2023-05-24T16:43:55;11.52;;;11.02;;
18021;SDS011;9136;48.822;7.966;2023-05-24T16:46:43;11.65;;;11.15;;